createdAt,value
2018-03-08T00:00:05.048Z,4.32
2018-03-08T00:01:04.990Z,4.15
2018-03-08T00:02:04.930Z,4.15
2018-03-08T00:03:04.865Z,4.14
2018-03-08T00:04:04.808Z,4.04
2018-03-08T00:05:04.744Z,3.98
2018-03-08T00:06:04.684Z,4.01
2018-03-08T00:07:04.626Z,3.89
2018-03-08T00:08:04.567Z,3.86
2018-03-08T00:09:04.504Z,3.80
2018-03-08T00:10:04.445Z,3.71
2018-03-08T00:11:04.382Z,3.76
2018-03-08T00:12:04.322Z,3.80
2018-03-08T00:13:04.262Z,3.78
2018-03-08T00:14:04.197Z,3.71
2018-03-08T00:15:04.141Z,3.76
2018-03-08T00:16:04.082Z,3.80
2018-03-08T00:17:04.017Z,3.80
2018-03-08T00:18:03.956Z,3.76
2018-03-08T00:19:03.895Z,3.75
2018-03-08T00:20:03.834Z,3.68
2018-03-08T00:21:03.774Z,3.79
2018-03-08T00:22:03.715Z,3.79
2018-03-08T00:23:03.652Z,3.76
2018-03-08T00:24:03.591Z,3.75
2018-03-08T00:25:03.544Z,3.76
2018-03-08T00:26:03.470Z,3.70
2018-03-08T00:27:03.414Z,3.71
2018-03-08T00:28:03.348Z,3.64
2018-03-08T00:29:03.291Z,3.67
2018-03-08T00:30:03.227Z,3.67
2018-03-08T00:31:03.165Z,3.67
2018-03-08T00:32:03.105Z,3.64
2018-03-08T00:33:03.046Z,3.61
2018-03-08T00:34:02.983Z,3.72
2018-03-08T00:35:02.924Z,3.79
2018-03-08T00:36:02.862Z,3.68
2018-03-08T00:37:02.800Z,3.76
2018-03-08T00:38:02.739Z,3.78
2018-03-08T00:39:02.680Z,3.72
2018-03-08T00:40:02.617Z,3.70
2018-03-08T00:41:02.561Z,3.76
2018-03-08T00:42:02.498Z,3.72
2018-03-08T00:43:02.437Z,3.82
2018-03-08T00:44:02.376Z,3.88
2018-03-08T00:45:02.312Z,3.86
2018-03-08T00:46:02.255Z,3.86
2018-03-08T00:47:02.192Z,3.88
2018-03-08T00:48:02.132Z,3.72
2018-03-08T00:49:02.075Z,3.94
2018-03-08T00:50:02.012Z,3.85
2018-03-08T00:51:01.952Z,3.89
2018-03-08T00:52:01.891Z,3.90
2018-03-08T00:53:01.829Z,3.92
2018-03-08T00:54:01.768Z,3.88
2018-03-08T00:55:01.708Z,4.03
2018-03-08T00:56:01.648Z,3.94
2018-03-08T00:57:01.584Z,3.96
2018-03-08T00:58:01.525Z,3.96
2018-03-08T00:59:01.466Z,3.94
2018-03-08T01:00:01.406Z,4.03
2018-03-08T01:01:01.347Z,4.00
2018-03-08T01:02:01.283Z,4.07
2018-03-08T01:03:01.221Z,4.07
2018-03-08T01:04:01.163Z,4.12
2018-03-08T01:05:01.103Z,4.06
2018-03-08T01:06:01.041Z,3.97
2018-03-08T01:07:00.980Z,4.10
2018-03-08T01:08:00.928Z,4.00
2018-03-08T01:09:00.859Z,3.85
2018-03-08T01:10:00.799Z,3.96
2018-03-08T01:11:00.738Z,4.03
2018-03-08T01:12:00.677Z,3.86
2018-03-08T01:13:00.616Z,3.76
2018-03-08T01:14:00.558Z,3.64
2018-03-08T01:15:00.497Z,3.71
2018-03-08T01:16:00.445Z,3.76
2018-03-08T01:17:00.372Z,3.72
2018-03-08T01:18:00.315Z,3.65
2018-03-08T01:19:00.254Z,3.70
2018-03-08T01:20:00.195Z,3.62
2018-03-08T01:21:00.134Z,3.76
2018-03-08T01:22:00.071Z,3.61
2018-03-08T01:23:00.009Z,3.67
2018-03-08T01:23:59.950Z,3.67
2018-03-08T01:24:59.887Z,3.65
2018-03-08T01:25:59.828Z,3.71
2018-03-08T01:26:59.782Z,3.65
2018-03-08T01:27:59.706Z,3.64
2018-03-08T01:28:59.646Z,3.64
2018-03-08T01:29:59.584Z,3.62
2018-03-08T01:30:59.526Z,3.61
2018-03-08T01:31:59.463Z,3.65
2018-03-08T01:32:59.401Z,3.78
2018-03-08T01:33:59.341Z,3.72
2018-03-08T01:34:59.282Z,3.76
2018-03-08T01:35:59.220Z,3.76
2018-03-08T01:36:59.163Z,3.75
2018-03-08T01:37:59.102Z,3.70
2018-03-08T01:38:59.037Z,3.72
2018-03-08T01:39:58.978Z,3.82
2018-03-08T01:40:58.918Z,3.78
2018-03-08T01:41:58.855Z,3.86
2018-03-08T01:42:58.797Z,3.83
2018-03-08T01:43:58.735Z,3.85
2018-03-08T01:44:58.677Z,3.82
2018-03-08T01:45:58.615Z,3.85
2018-03-08T01:46:58.555Z,3.92
2018-03-08T01:47:58.491Z,3.86
2018-03-08T01:48:58.433Z,3.86
2018-03-08T01:49:58.371Z,3.92
2018-03-08T01:50:58.311Z,4.01
2018-03-08T01:51:58.257Z,3.97
2018-03-08T01:52:58.189Z,4.07
2018-03-08T01:53:58.157Z,4.03
2018-03-08T01:54:58.068Z,4.03
2018-03-08T01:55:58.042Z,4.04
2018-03-08T01:56:57.981Z,4.06
2018-03-08T01:57:57.887Z,3.97
2018-03-08T01:58:57.827Z,4.01
2018-03-08T01:59:57.766Z,3.97
2018-03-08T02:00:57.704Z,3.96
2018-03-08T02:01:57.649Z,4.01
2018-03-08T02:02:57.585Z,3.89
2018-03-08T02:03:57.525Z,3.88
2018-03-08T02:04:57.466Z,3.89
2018-03-08T02:05:57.403Z,3.98
2018-03-08T02:06:57.344Z,3.89
2018-03-08T02:07:57.301Z,3.96
2018-03-08T02:08:57.222Z,3.97
2018-03-08T02:09:57.161Z,3.96
2018-03-08T02:10:57.102Z,3.96
2018-03-08T02:11:57.040Z,4.04
2018-03-08T02:12:56.979Z,3.96
2018-03-08T02:13:56.917Z,3.94
2018-03-08T02:14:56.858Z,3.85
2018-03-08T02:15:56.797Z,3.92
2018-03-08T02:16:56.736Z,3.98
2018-03-08T02:17:56.682Z,4.01
2018-03-08T02:18:56.615Z,4.03
2018-03-08T02:19:56.557Z,3.90
2018-03-08T02:20:56.498Z,3.94
2018-03-08T02:21:56.434Z,3.96
2018-03-08T02:22:56.375Z,3.96
2018-03-08T02:23:56.312Z,4.08
2018-03-08T02:24:56.281Z,4.03
2018-03-08T02:25:56.188Z,4.04
2018-03-08T02:26:56.131Z,3.96
2018-03-08T02:27:56.074Z,3.88
2018-03-08T02:28:56.010Z,3.98
2018-03-08T02:29:55.949Z,3.86
2018-03-08T02:30:55.891Z,3.89
2018-03-08T02:31:55.828Z,3.92
2018-03-08T02:32:55.766Z,4.04
2018-03-08T02:33:55.714Z,3.96
2018-03-08T02:34:55.648Z,3.97
2018-03-08T02:35:55.587Z,4.01
2018-03-08T02:36:55.527Z,3.92
2018-03-08T02:37:55.467Z,3.90
2018-03-08T02:38:55.406Z,4.00
2018-03-08T02:39:55.350Z,4.03
2018-03-08T02:40:55.283Z,3.94
2018-03-08T02:41:55.223Z,3.92
2018-03-08T02:42:55.163Z,4.01
2018-03-08T02:43:55.103Z,3.97
2018-03-08T02:44:55.041Z,3.86
2018-03-08T02:45:54.984Z,3.90
2018-03-08T02:46:54.925Z,3.86
2018-03-08T02:47:54.861Z,3.89
2018-03-08T02:48:54.802Z,3.94
2018-03-08T02:49:54.744Z,3.92
2018-03-08T02:50:54.677Z,3.90
2018-03-08T02:51:54.621Z,3.92
2018-03-08T02:52:54.558Z,3.90
2018-03-08T02:53:54.495Z,3.89
2018-03-08T02:54:54.436Z,3.92
2018-03-08T02:55:54.376Z,3.96
2018-03-08T02:56:54.314Z,3.90
2018-03-08T02:57:54.254Z,3.98
2018-03-08T02:58:54.192Z,3.89
2018-03-08T02:59:54.138Z,3.89
2018-03-08T03:00:54.075Z,3.90
2018-03-08T03:01:54.010Z,3.85
2018-03-08T03:02:53.951Z,3.85
2018-03-08T03:03:53.890Z,3.90
2018-03-08T03:04:53.830Z,3.88
2018-03-08T03:05:53.768Z,3.88
2018-03-08T03:06:53.705Z,3.92
2018-03-08T03:07:53.647Z,3.94
2018-03-08T03:08:53.585Z,3.89
2018-03-08T03:09:53.600Z,3.89
2018-03-08T03:10:53.464Z,3.88
2018-03-08T03:11:53.403Z,3.86
2018-03-08T03:12:53.342Z,3.94
2018-03-08T03:13:53.292Z,3.89
2018-03-08T03:14:53.225Z,3.86
2018-03-08T03:15:53.162Z,3.92
2018-03-08T03:16:53.102Z,3.89
2018-03-08T03:17:53.040Z,4.04
2018-03-08T03:18:52.983Z,3.86
2018-03-08T03:19:52.922Z,3.94
2018-03-08T03:20:52.859Z,4.03
2018-03-08T03:21:52.799Z,4.01
2018-03-08T03:22:52.738Z,3.92
2018-03-08T03:23:52.676Z,4.01
2018-03-08T03:24:52.614Z,3.89
2018-03-08T03:25:52.556Z,3.83
2018-03-08T03:26:52.494Z,3.89
2018-03-08T03:27:52.443Z,3.89
2018-03-08T03:28:52.375Z,3.89
2018-03-08T03:29:52.312Z,3.86
2018-03-08T03:30:52.254Z,3.85
2018-03-08T03:31:52.194Z,3.83
2018-03-08T03:32:52.130Z,3.83
2018-03-08T03:33:52.075Z,3.90
2018-03-08T03:34:52.012Z,3.92
2018-03-08T03:35:51.954Z,3.86
2018-03-08T03:36:51.891Z,3.85
2018-03-08T03:37:51.834Z,3.86
2018-03-08T03:38:51.770Z,3.83
2018-03-08T03:39:51.709Z,3.90
2018-03-08T03:40:51.648Z,3.83
2018-03-08T03:41:51.588Z,3.89
2018-03-08T03:42:51.528Z,3.88
2018-03-08T03:43:51.466Z,3.88
2018-03-08T03:44:51.404Z,3.85
2018-03-08T03:45:51.345Z,3.85
2018-03-08T03:46:51.285Z,3.82
2018-03-08T03:47:51.224Z,3.80
2018-03-08T03:48:51.162Z,3.80
2018-03-08T03:49:51.103Z,3.86
2018-03-08T03:50:51.049Z,3.85
2018-03-08T03:51:50.987Z,3.76
2018-03-08T03:52:50.934Z,3.89
2018-03-08T03:53:50.863Z,3.89
2018-03-08T03:54:50.802Z,3.89
2018-03-08T03:55:50.744Z,3.86
2018-03-08T03:56:50.681Z,3.89
2018-03-08T03:57:50.620Z,3.72
2018-03-08T03:58:50.572Z,3.92
2018-03-08T03:59:50.502Z,3.86
2018-03-08T04:00:50.439Z,3.82
2018-03-08T04:01:50.382Z,3.85
2018-03-08T04:02:50.319Z,3.79
2018-03-08T04:03:50.258Z,3.72
2018-03-08T04:04:50.197Z,3.72
2018-03-08T04:05:50.138Z,3.76
2018-03-08T04:06:50.080Z,3.68
2018-03-08T04:07:50.017Z,3.75
2018-03-08T04:08:49.962Z,3.70
2018-03-08T04:09:49.895Z,3.68
2018-03-08T04:10:49.835Z,3.70
2018-03-08T04:11:49.776Z,3.76
2018-03-08T04:12:49.716Z,3.78
2018-03-08T04:13:49.657Z,3.75
2018-03-08T04:14:49.593Z,3.72
2018-03-08T04:15:49.535Z,3.76
2018-03-08T04:16:49.478Z,3.72
2018-03-08T04:17:49.415Z,3.76
2018-03-08T04:18:49.351Z,3.79
2018-03-08T04:19:49.295Z,3.82
2018-03-08T04:20:49.231Z,3.86
2018-03-08T04:21:49.171Z,3.85
2018-03-08T04:22:49.111Z,3.83
2018-03-08T04:23:49.050Z,3.80
2018-03-08T04:24:48.988Z,3.89
2018-03-08T04:25:48.927Z,3.94
2018-03-08T04:26:48.867Z,3.90
2018-03-08T04:27:48.810Z,3.94
2018-03-08T04:28:48.744Z,3.90
2018-03-08T04:29:48.682Z,3.85
2018-03-08T04:30:48.624Z,3.92
2018-03-08T04:31:48.568Z,3.92
2018-03-08T04:32:48.502Z,3.89
2018-03-08T04:33:48.442Z,3.90
2018-03-08T04:34:48.381Z,3.88
2018-03-08T04:35:48.322Z,3.86
2018-03-08T04:36:48.263Z,3.86
2018-03-08T04:37:48.205Z,3.86
2018-03-08T04:38:48.141Z,3.85
2018-03-08T04:39:48.087Z,3.92
2018-03-08T04:40:48.024Z,3.89
2018-03-08T04:41:47.960Z,3.88
2018-03-08T04:42:47.899Z,3.97
2018-03-08T04:43:47.836Z,3.97
2018-03-08T04:44:47.773Z,3.94
2018-03-08T04:45:47.713Z,4.00
2018-03-08T04:46:47.656Z,3.98
2018-03-08T04:47:47.593Z,3.92
2018-03-08T04:48:47.533Z,4.03
2018-03-08T04:49:47.471Z,3.92
2018-03-08T04:50:47.411Z,3.86
2018-03-08T04:51:47.349Z,3.89
2018-03-08T04:52:47.288Z,3.86
2018-03-08T04:53:47.229Z,3.86
2018-03-08T04:54:47.168Z,3.85
2018-03-08T04:55:47.110Z,3.89
2018-03-08T04:56:47.047Z,3.89
2018-03-08T04:57:46.989Z,3.92
2018-03-08T04:58:46.920Z,3.89
2018-03-08T04:59:46.869Z,3.89
2018-03-08T05:00:46.808Z,3.89
2018-03-08T05:01:46.745Z,3.89
2018-03-08T05:02:46.690Z,3.92
2018-03-08T05:03:46.630Z,3.89
2018-03-08T05:04:46.563Z,3.86
2018-03-08T05:05:46.505Z,3.92
2018-03-08T05:06:46.452Z,3.89
2018-03-08T05:07:46.382Z,3.86
2018-03-08T05:08:46.323Z,3.89
2018-03-08T05:09:46.264Z,3.86
2018-03-08T05:10:46.201Z,3.89
2018-03-08T05:11:46.142Z,3.88
2018-03-08T05:12:46.079Z,3.88
2018-03-08T05:13:46.019Z,3.94
2018-03-08T05:14:45.960Z,3.89
2018-03-08T05:15:45.903Z,3.90
2018-03-08T05:16:45.839Z,3.83
2018-03-08T05:17:45.778Z,3.83
2018-03-08T05:18:45.717Z,3.89
2018-03-08T05:19:45.657Z,3.80
2018-03-08T05:20:45.596Z,3.86
2018-03-08T05:21:45.535Z,3.97
2018-03-08T05:22:45.478Z,3.94
2018-03-08T05:23:45.424Z,3.92
2018-03-08T05:24:45.355Z,4.00
2018-03-08T05:25:45.293Z,3.94
2018-03-08T05:26:45.235Z,4.01
2018-03-08T05:27:45.174Z,4.03
2018-03-08T05:28:45.114Z,4.01
2018-03-08T05:29:45.054Z,4.06
2018-03-08T05:30:44.993Z,4.07
2018-03-08T05:31:44.937Z,4.00
2018-03-08T05:32:44.877Z,3.97
2018-03-08T05:33:44.814Z,4.01
2018-03-08T05:34:44.765Z,3.96
2018-03-08T05:35:44.694Z,4.03
2018-03-08T05:36:44.633Z,3.98
2018-03-08T05:37:44.574Z,3.90
2018-03-08T05:38:44.512Z,4.06
2018-03-08T05:39:44.451Z,4.07
2018-03-08T05:40:44.393Z,4.06
2018-03-08T05:41:44.331Z,4.07
2018-03-08T05:42:44.270Z,4.07
2018-03-08T05:43:44.213Z,4.08
2018-03-08T05:44:44.154Z,4.07
2018-03-08T05:45:44.089Z,4.04
2018-03-08T05:46:44.032Z,4.12
2018-03-08T05:47:43.969Z,4.06
2018-03-08T05:48:43.914Z,4.04
2018-03-08T05:49:43.850Z,4.04
2018-03-08T05:50:43.790Z,4.07
2018-03-08T05:51:43.730Z,4.01
2018-03-08T05:52:43.667Z,4.10
2018-03-08T05:53:43.608Z,4.10
2018-03-08T05:54:43.547Z,4.08
2018-03-08T05:55:43.488Z,4.03
2018-03-08T05:56:43.427Z,4.08
2018-03-08T05:57:43.368Z,4.04
2018-03-08T05:58:43.306Z,4.01
2018-03-08T05:59:43.243Z,4.06
2018-03-08T06:00:43.184Z,4.07
2018-03-08T06:01:43.125Z,4.04
2018-03-08T06:02:43.068Z,4.10
2018-03-08T06:03:43.008Z,4.04
2018-03-08T06:04:42.947Z,4.06
2018-03-08T06:05:42.884Z,4.12
2018-03-08T06:06:42.827Z,4.08
2018-03-08T06:07:42.764Z,4.03
2018-03-08T06:08:42.704Z,4.06
2018-03-08T06:09:42.642Z,4.01
2018-03-08T06:10:42.587Z,4.15
2018-03-08T06:11:42.524Z,4.10
2018-03-08T06:12:42.465Z,4.14
2018-03-08T06:13:42.404Z,4.18
2018-03-08T06:14:42.344Z,4.06
2018-03-08T06:15:42.292Z,4.07
2018-03-08T06:16:42.223Z,4.03
2018-03-08T06:17:42.162Z,4.07
2018-03-08T06:18:42.106Z,4.08
2018-03-08T06:19:42.047Z,4.16
2018-03-08T06:20:42.009Z,4.10
2018-03-08T06:21:41.922Z,4.08
2018-03-08T06:22:41.862Z,4.07
2018-03-08T06:23:41.803Z,4.04
2018-03-08T06:24:41.742Z,4.04
2018-03-08T06:25:41.683Z,4.03
2018-03-08T06:26:41.623Z,4.10
2018-03-08T06:27:41.562Z,4.04
2018-03-08T06:28:41.500Z,4.03
2018-03-08T06:29:41.440Z,3.96
2018-03-08T06:30:41.379Z,4.03
2018-03-08T06:31:41.324Z,4.07
2018-03-08T06:32:41.259Z,4.01
2018-03-08T06:33:41.198Z,3.97
2018-03-08T06:34:41.139Z,4.03
2018-03-08T06:35:41.078Z,4.18
2018-03-08T06:36:41.017Z,4.14
2018-03-08T06:37:40.958Z,4.04
2018-03-08T06:38:40.897Z,4.14
2018-03-08T06:39:40.837Z,4.10
2018-03-08T06:40:40.780Z,4.12
2018-03-08T06:41:40.718Z,4.19
2018-03-08T06:42:40.657Z,4.08
2018-03-08T06:43:40.603Z,4.15
2018-03-08T06:44:40.538Z,4.10
2018-03-08T06:45:40.479Z,4.06
2018-03-08T06:46:40.432Z,4.01
2018-03-08T06:47:40.357Z,4.01
2018-03-08T06:48:40.296Z,4.04
2018-03-08T06:49:40.241Z,4.04
2018-03-08T06:50:40.176Z,3.96
2018-03-08T06:51:40.115Z,3.92
2018-03-08T06:52:40.070Z,3.97
2018-03-08T06:53:39.997Z,3.97
2018-03-08T06:54:39.936Z,4.03
2018-03-08T06:55:39.874Z,4.00
2018-03-08T06:56:39.818Z,3.89
2018-03-08T06:57:39.755Z,3.89
2018-03-08T06:58:39.696Z,3.86
2018-03-08T06:59:39.634Z,3.86
2018-03-08T07:00:39.578Z,3.89
2018-03-08T07:01:39.513Z,3.86
2018-03-08T07:02:39.453Z,3.72
2018-03-08T07:03:39.394Z,3.76
2018-03-08T07:04:39.334Z,3.78
2018-03-08T07:05:39.272Z,3.82
2018-03-08T07:06:39.213Z,3.79
2018-03-08T07:07:39.152Z,3.72
2018-03-08T07:08:39.097Z,3.75
2018-03-08T07:09:39.048Z,3.75
2018-03-08T07:10:38.972Z,3.88
2018-03-08T07:11:38.913Z,3.89
2018-03-08T07:12:38.854Z,3.90
2018-03-08T07:13:38.790Z,3.89
2018-03-08T07:14:38.732Z,3.82
2018-03-08T07:15:38.669Z,3.83
2018-03-08T07:16:38.608Z,3.86
2018-03-08T07:17:38.550Z,3.96
2018-03-08T07:18:38.488Z,3.94
2018-03-08T07:19:38.431Z,3.98
2018-03-08T07:20:38.368Z,3.96
2018-03-08T07:21:38.308Z,3.92
2018-03-08T07:22:38.247Z,3.92
2018-03-08T07:23:38.187Z,3.94
2018-03-08T07:24:38.125Z,3.88
2018-03-08T07:25:38.065Z,3.89
2018-03-08T07:26:38.006Z,3.90
2018-03-08T07:27:37.946Z,3.82
2018-03-08T07:28:38.345Z,3.82
2018-03-08T07:29:37.825Z,3.83
2018-03-08T07:30:37.769Z,3.79
2018-03-08T07:31:37.703Z,3.71
2018-03-08T07:32:37.649Z,3.82
2018-03-08T07:33:37.583Z,3.76
2018-03-08T07:34:37.526Z,3.80
2018-03-08T07:35:37.466Z,3.72
2018-03-08T07:36:37.400Z,3.75
2018-03-08T07:37:37.343Z,3.79
2018-03-08T07:38:37.283Z,3.85
2018-03-08T07:39:37.221Z,3.85
2018-03-08T07:40:37.161Z,3.80
2018-03-08T07:41:37.102Z,3.86
2018-03-08T07:42:37.041Z,3.83
2018-03-08T07:43:36.979Z,3.83
2018-03-08T07:44:36.918Z,3.88
2018-03-08T07:45:36.857Z,3.89
2018-03-08T07:46:36.801Z,3.89
2018-03-08T07:47:36.738Z,3.97
2018-03-08T07:48:36.679Z,4.04
2018-03-08T07:49:36.618Z,3.97
2018-03-08T07:50:36.556Z,3.96
2018-03-08T07:51:36.496Z,4.08
2018-03-08T07:52:36.435Z,4.07
2018-03-08T07:53:36.374Z,4.12
2018-03-08T07:54:36.314Z,4.10
2018-03-08T07:55:36.255Z,4.15
2018-03-08T07:56:36.192Z,4.25
2018-03-08T07:57:36.134Z,4.40
2018-03-08T07:58:36.075Z,4.39
2018-03-08T07:59:36.013Z,4.36
2018-03-08T08:00:35.952Z,4.54
2018-03-08T08:01:35.891Z,4.59
2018-03-08T08:02:35.831Z,4.52
2018-03-08T08:03:35.781Z,4.65
2018-03-08T08:04:35.711Z,4.70
2018-03-08T08:05:35.650Z,4.67
2018-03-08T08:06:35.590Z,4.72
2018-03-08T08:07:35.528Z,4.69
2018-03-08T08:08:35.467Z,4.73
2018-03-08T08:09:35.409Z,4.79
2018-03-08T08:10:35.350Z,4.84
2018-03-08T08:11:35.289Z,4.84
2018-03-08T08:12:35.229Z,4.92
2018-03-08T08:13:35.170Z,4.95
2018-03-08T08:14:35.107Z,4.88
2018-03-08T08:15:35.049Z,4.89
2018-03-08T08:16:34.987Z,4.95
2018-03-08T08:17:34.934Z,5.07
2018-03-08T08:18:34.872Z,5.10
2018-03-08T08:19:34.808Z,5.20
2018-03-08T08:20:34.749Z,5.14
2018-03-08T08:21:34.687Z,5.12
2018-03-08T08:22:34.626Z,5.16
2018-03-08T08:23:34.575Z,5.23
2018-03-08T08:24:34.507Z,5.32
2018-03-08T08:25:34.447Z,5.28
2018-03-08T08:26:34.385Z,5.32
2018-03-08T08:27:34.328Z,5.34
2018-03-08T08:28:34.268Z,5.32
2018-03-08T08:29:34.211Z,5.41
2018-03-08T08:30:34.151Z,5.48
2018-03-08T08:31:34.088Z,5.46
2018-03-08T08:32:34.027Z,5.55
2018-03-08T08:33:33.967Z,5.53
2018-03-08T08:34:33.906Z,5.48
2018-03-08T08:35:33.848Z,5.49
2018-03-08T08:36:33.789Z,5.64
2018-03-08T08:37:33.730Z,5.57
2018-03-08T08:38:33.668Z,5.60
2018-03-08T08:39:33.610Z,5.67
2018-03-08T08:40:33.604Z,5.73
2018-03-08T08:41:33.488Z,5.83
2018-03-08T08:42:33.431Z,5.81
2018-03-08T08:43:33.369Z,5.82
2018-03-08T08:44:33.310Z,5.83
2018-03-08T08:45:33.251Z,5.92
2018-03-08T08:46:33.213Z,5.96
2018-03-08T08:47:33.134Z,5.89
2018-03-08T08:48:33.070Z,6.01
2018-03-08T08:49:33.013Z,5.98
2018-03-08T08:50:32.952Z,6.06
2018-03-08T08:51:32.907Z,6.09
2018-03-08T08:52:32.831Z,6.16
2018-03-08T08:53:32.771Z,6.14
2018-03-08T08:54:32.752Z,6.32
2018-03-08T08:55:32.654Z,6.21
2018-03-08T08:56:32.594Z,6.32
2018-03-08T08:57:32.536Z,6.40
2018-03-08T08:58:32.475Z,6.35
2018-03-08T08:59:32.414Z,6.40
2018-03-08T09:00:32.356Z,6.48
2018-03-08T09:01:32.296Z,6.56
2018-03-08T09:02:32.246Z,6.56
2018-03-08T09:03:32.178Z,6.53
2018-03-08T09:04:32.119Z,6.65
2018-03-08T09:05:32.059Z,6.62
2018-03-08T09:06:32.002Z,6.65
2018-03-08T09:07:31.975Z,6.69
2018-03-08T09:08:31.883Z,6.62
2018-03-08T09:09:31.822Z,6.76
2018-03-08T09:10:31.764Z,6.79
2018-03-08T09:11:31.704Z,6.79
2018-03-08T09:12:31.642Z,6.80
2018-03-08T09:13:31.587Z,6.77
2018-03-08T09:14:31.528Z,6.95
2018-03-08T09:15:31.468Z,6.99
2018-03-08T09:16:31.408Z,7.01
2018-03-08T09:17:31.348Z,7.04
2018-03-08T09:18:31.293Z,7.04
2018-03-08T09:19:31.231Z,6.95
2018-03-08T09:20:31.171Z,6.83
2018-03-08T09:21:31.111Z,6.84
2018-03-08T09:22:31.057Z,6.84
2018-03-08T09:23:30.993Z,6.91
2018-03-08T09:24:30.967Z,7.05
2018-03-08T09:25:30.877Z,7.04
2018-03-08T09:26:30.816Z,7.16
2018-03-08T09:27:30.758Z,7.32
2018-03-08T09:28:30.700Z,7.47
2018-03-08T09:29:30.640Z,7.41
2018-03-08T09:30:30.580Z,7.44
2018-03-08T09:31:30.522Z,7.49
2018-03-08T09:32:30.464Z,7.63
2018-03-08T09:33:30.407Z,7.58
2018-03-08T09:34:30.349Z,7.49
2018-03-08T09:35:30.317Z,7.50
2018-03-08T09:36:30.225Z,7.59
2018-03-08T09:37:30.168Z,7.60
2018-03-08T09:38:30.111Z,7.71
2018-03-08T09:39:30.051Z,7.89
2018-03-08T09:40:29.995Z,7.77
2018-03-08T09:41:29.933Z,7.84
2018-03-08T09:42:29.876Z,7.78
2018-03-08T09:43:29.816Z,7.81
2018-03-08T09:44:29.757Z,7.87
2018-03-08T09:45:29.698Z,8.17
2018-03-08T09:46:29.639Z,8.14
2018-03-08T09:47:29.582Z,8.12
2018-03-08T09:48:29.522Z,8.12
2018-03-08T09:49:29.464Z,8.12
2018-03-08T09:50:29.405Z,8.12
2018-03-08T09:51:29.346Z,8.10
2018-03-08T09:52:29.288Z,7.97
2018-03-08T09:53:29.229Z,8.17
2018-03-08T09:54:29.173Z,8.07
2018-03-08T09:55:29.113Z,8.17
2018-03-08T09:56:29.061Z,8.22
2018-03-08T09:57:28.995Z,8.32
2018-03-08T09:58:28.937Z,8.33
2018-03-08T09:59:28.879Z,8.48
2018-03-08T10:00:28.821Z,8.58
2018-03-08T10:01:28.763Z,8.45
2018-03-08T10:02:28.704Z,8.57
2018-03-08T10:03:28.646Z,8.55
2018-03-08T10:04:28.588Z,8.69
2018-03-08T10:05:28.529Z,8.76
2018-03-08T10:06:28.472Z,8.63
2018-03-08T10:07:28.414Z,8.62
2018-03-08T10:08:28.368Z,8.39
2018-03-08T10:09:28.335Z,8.25
2018-03-08T10:10:28.243Z,8.25
2018-03-08T10:11:28.180Z,8.30
2018-03-08T10:12:28.125Z,8.30
2018-03-08T10:13:28.063Z,8.26
2018-03-08T10:14:28.006Z,8.26
2018-03-08T10:15:27.946Z,8.44
2018-03-08T10:16:27.889Z,8.39
2018-03-08T10:17:27.830Z,8.48
2018-03-08T10:18:27.770Z,8.58
2018-03-08T10:19:27.714Z,8.53
2018-03-08T10:20:27.657Z,8.39
2018-03-08T10:21:44.407Z,8.37
2018-03-08T10:22:27.540Z,8.62
2018-03-08T10:23:27.480Z,8.65
2018-03-08T10:24:27.425Z,8.62
2018-03-08T10:25:27.365Z,8.73
2018-03-08T10:26:27.304Z,8.83
2018-03-08T10:27:27.248Z,8.90
2018-03-08T10:28:27.190Z,8.90
2018-03-08T10:29:27.129Z,8.81
2018-03-08T10:30:27.072Z,8.79
2018-03-08T10:31:27.016Z,8.83
2018-03-08T10:32:26.956Z,8.78
2018-03-08T10:33:26.897Z,8.81
2018-03-08T10:34:26.840Z,8.83
2018-03-08T10:35:26.781Z,8.76
2018-03-08T10:36:26.722Z,8.51
2018-03-08T10:37:26.664Z,8.68
2018-03-08T10:38:26.626Z,8.73
2018-03-08T10:43:26.323Z,8.97
2018-03-08T10:44:26.257Z,8.96
2018-03-08T10:45:26.199Z,8.93
2018-03-08T10:46:26.142Z,8.97
2018-03-08T10:47:26.081Z,9.21
2018-03-08T10:48:26.024Z,9.23
2018-03-08T10:49:25.970Z,9.32
2018-03-08T10:50:25.932Z,9.23
2018-03-08T10:51:25.849Z,8.87
2018-03-08T10:52:25.791Z,8.93
2018-03-08T10:53:25.732Z,9.04
2018-03-08T10:54:25.675Z,9.15
2018-03-08T10:55:25.622Z,9.15
2018-03-08T10:56:25.558Z,9.18
2018-03-08T10:57:25.503Z,9.20
2018-03-08T10:58:25.444Z,9.06
2018-03-08T10:59:25.385Z,8.94
2018-03-08T11:00:25.329Z,8.91
2018-03-08T11:01:25.273Z,8.84
2018-03-08T11:02:25.213Z,8.87
2018-03-08T11:03:25.158Z,9.05
2018-03-08T11:04:26.545Z,9.21
2018-03-08T11:05:25.037Z,9.40
2018-03-08T11:06:24.989Z,9.34
2018-03-08T11:07:24.922Z,9.34
2018-03-08T11:08:24.864Z,9.39
2018-03-08T11:09:24.820Z,9.40
2018-03-08T11:10:24.748Z,9.02
2018-03-08T11:11:24.695Z,8.87
2018-03-08T11:12:24.633Z,8.90
2018-03-08T11:13:24.575Z,8.81
2018-03-08T11:14:24.517Z,8.84
2018-03-08T11:15:24.460Z,8.83
2018-03-08T11:16:24.416Z,9.05
2018-03-08T11:17:24.344Z,9.09
2018-03-08T11:18:24.287Z,9.05
2018-03-08T11:19:24.230Z,9.27
2018-03-08T11:20:24.179Z,9.05
2018-03-08T11:21:24.113Z,9.32
2018-03-08T11:22:24.061Z,9.32
2018-03-08T11:23:23.999Z,9.49
2018-03-08T11:24:23.941Z,9.56
2018-03-08T11:25:23.883Z,9.52
2018-03-08T11:26:23.826Z,9.57
2018-03-08T11:27:23.769Z,9.53
2018-03-08T11:28:23.709Z,9.45
2018-03-08T11:29:23.654Z,9.42
2018-03-08T11:30:23.598Z,9.40
2018-03-08T11:31:23.537Z,9.58
2018-03-08T11:32:23.478Z,9.71
2018-03-08T11:33:23.423Z,9.86
2018-03-08T11:34:23.367Z,9.57
2018-03-08T11:35:23.309Z,9.32
2018-03-08T11:36:23.250Z,9.06
2018-03-08T11:37:23.191Z,9.18
2018-03-08T11:38:23.135Z,9.45
2018-03-08T11:39:23.075Z,9.45
2018-03-08T11:40:23.018Z,9.48
2018-03-08T11:41:23.146Z,9.31
2018-03-08T11:42:22.905Z,9.43
2018-03-08T11:43:22.879Z,9.56
2018-03-08T11:44:22.790Z,9.42
2018-03-08T11:45:22.993Z,9.56
2018-03-08T11:46:22.674Z,9.63
2018-03-08T11:47:22.619Z,9.63
2018-03-08T11:48:22.556Z,9.63
2018-03-08T11:49:22.492Z,9.66
2018-03-08T11:50:22.446Z,9.76
2018-03-08T11:51:22.388Z,9.86
2018-03-08T11:52:22.330Z,9.94
2018-03-08T11:53:22.273Z,9.91
2018-03-08T11:54:22.212Z,9.94
2018-03-08T11:55:22.155Z,10.10
2018-03-08T11:56:22.094Z,10.10
2018-03-08T11:57:22.038Z,10.15
2018-03-08T11:58:21.979Z,10.18
2018-03-08T11:59:21.923Z,10.32
2018-03-08T12:00:21.862Z,10.36
2018-03-08T12:01:21.810Z,10.33
2018-03-08T12:02:21.749Z,10.15
2018-03-08T12:03:21.693Z,10.24
2018-03-08T12:04:21.633Z,10.40
2018-03-08T12:05:21.577Z,10.42
2018-03-08T12:06:21.518Z,10.43
2018-03-08T12:07:21.461Z,10.46
2018-03-08T12:08:21.404Z,10.52
2018-03-08T12:09:21.345Z,10.52
2018-03-08T12:10:21.290Z,10.39
2018-03-08T12:11:21.232Z,10.39
2018-03-08T12:12:21.172Z,10.46
2018-03-08T12:13:21.115Z,10.80
2018-03-08T12:14:21.059Z,11.01
2018-03-08T12:15:21.003Z,10.95
2018-03-08T12:16:20.944Z,10.71
2018-03-08T12:17:20.887Z,10.86
2018-03-08T12:18:20.829Z,10.94
2018-03-08T12:19:20.779Z,10.94
2018-03-08T12:20:20.729Z,11.01
2018-03-08T12:21:20.658Z,10.88
2018-03-08T12:22:20.602Z,10.71
2018-03-08T12:23:20.543Z,10.80
2018-03-08T12:24:20.487Z,10.73
2018-03-08T12:25:20.431Z,10.63
2018-03-08T12:26:20.372Z,10.59
2018-03-08T12:27:20.316Z,10.66
2018-03-08T12:28:20.264Z,10.63
2018-03-08T12:29:20.200Z,10.86
2018-03-08T12:30:20.145Z,10.76
2018-03-08T12:31:20.090Z,10.63
2018-03-08T12:32:20.033Z,10.80
2018-03-08T12:33:19.978Z,10.73
2018-03-08T12:34:19.917Z,10.70
2018-03-08T12:35:19.862Z,10.68
2018-03-08T12:36:19.802Z,10.74
2018-03-08T12:37:19.745Z,10.91
2018-03-08T12:38:19.691Z,11.10
2018-03-08T12:39:19.633Z,10.86
2018-03-08T12:40:19.578Z,10.47
2018-03-08T12:41:19.517Z,10.56
2018-03-08T12:42:19.460Z,10.47
2018-03-08T12:43:19.404Z,10.47
2018-03-08T12:44:19.347Z,10.63
2018-03-08T12:45:19.292Z,10.46
2018-03-08T12:46:19.230Z,10.52
2018-03-08T12:47:19.179Z,10.71
2018-03-08T12:48:19.127Z,11.01
2018-03-08T12:49:19.061Z,11.02
2018-03-08T12:50:19.006Z,11.03
2018-03-08T12:51:18.953Z,10.51
2018-03-08T12:52:18.889Z,10.56
2018-03-08T12:53:18.833Z,10.63
2018-03-08T12:54:18.777Z,10.81
2018-03-08T12:55:18.718Z,10.92
2018-03-08T12:56:18.664Z,11.19
2018-03-08T12:57:18.665Z,11.09
2018-03-08T12:58:18.548Z,10.98
2018-03-08T12:59:18.491Z,10.95
2018-03-08T13:00:18.433Z,11.03
2018-03-08T13:01:18.375Z,11.11
2018-03-08T13:02:18.328Z,11.17
2018-03-08T13:03:18.264Z,11.09
2018-03-08T13:04:18.244Z,11.03
2018-03-08T13:05:18.148Z,10.95
2018-03-08T13:06:18.097Z,10.96
2018-03-08T13:07:18.036Z,10.86
2018-03-08T13:08:17.977Z,10.84
2018-03-08T13:09:17.920Z,10.88
2018-03-08T13:10:17.866Z,11.01
2018-03-08T13:11:17.808Z,10.71
2018-03-08T13:12:17.758Z,10.68
2018-03-08T13:13:17.691Z,10.52
2018-03-08T13:14:17.636Z,10.65
2018-03-08T13:15:17.580Z,10.84
2018-03-08T13:16:17.520Z,11.10
2018-03-08T13:17:17.467Z,11.25
2018-03-08T13:18:17.408Z,11.19